METAR Data
IDs: Format: Raw Decoded Include TAF

Data at: 1025 UTC 18 Jan 2019

PATG 180956Z AUTO 33010KT 10SM BKN042 OVC060 01/M03 A2974 RMK AO2 SLP165 T00061028 FZRANO
PATG 180856Z AUTO 33016KT 10SM OVC060 00/M03 A2973 RMK AO2 SLP163 T00001033 400221017 50001 FZRANO
PATG 180756Z AUTO 34008KT 10SM FEW060 M01/M03 A2974 RMK AO2 SLP165 T10111028 FZRANO
PATG 180656Z AUTO 34008KT 10SM CLR M01/M03 A2973 RMK AO2 SLP163 T10111028 FZRANO
PATG 180556Z AUTO 34005KT 10SM CLR M01/M02 A2973 RMK AO2 SLP162 T10061022 10017 21017 53003 FZRANO
PATG 180456Z AUTO 36007KT 10SM CLR M01/M02 A2972 RMK AO2 SLP160 T10111022 FZRANO
PATG 180356Z AUTO 32006KT 10SM CLR M01/M02 A2972 RMK AO2 SLP160 T10061017 FZRANO
PATG 180256Z AUTO 00000KT 10SM CLR 00/M01 A2972 RMK AO2 SLP159 T00001011 53007 FZRANO
PATG 180156Z AUTO 32003KT 10SM FEW055 01/M01 A2971 RMK AO2 SLP155 T00061011 FZRANO
PATG 180056Z AUTO 34003KT 10SM CLR 01/M01 A2970 RMK AO2 SLP152 T00111006 FZRANO
PATG 172356Z AUTO 36005KT 10SM CLR 02/00 A2970 RMK AO2 SLP151 T00170000 10017 21011 50000 FZRANO
PATG 172256Z AUTO 01007KT 10SM CLR 02/00 A2970 RMK AO2 SLP151 T00170000 FZRANO
PATG 172156Z AUTO 02009KT 10SM OVC046 01/M01 A2970 RMK AO2 SLP151 T00111006 FZRANO
PATG 172056Z AUTO 34009KT 10SM OVC048 01/M01 A2970 RMK AO2 SLP151 T00061006 51016 FZRANO
PATG 171956Z AUTO 35009KT 10SM SCT050 00/M01 A2969 RMK AO2 SLP148 T00001011 FZRANO
PATG 171856Z AUTO 34008KT 10SM CLR M01/M02 A2967 RMK AO2 SLP144 T10061017 FZRANO
PATG 171756Z AUTO 35009KT 10SM CLR M01/M02 A2965 RMK AO2 SLP135 T10111017 10022 21017 53010 FZRANO
PATG 171656Z AUTO 33007KT 10SM CLR M01/M02 A2964 RMK AO2 SLP132 T10111017 FZRANO
PATG 171556Z AUTO 34007KT 10SM CLR M01/M02 A2963 RMK AO2 SLP128 T10111017 FZRANO
PATG 171456Z AUTO 01008KT 10SM FEW048 00/M01 A2962 RMK AO2 SLP125 T00001011 51011 FZRANO
PATG 171356Z AUTO 05008KT 10SM FEW038 02/01 A2961 RMK AO2 SLP123 T00220006 FZRANO
PATG 171256Z AUTO 01006KT 10SM FEW049 01/00 A2960 RMK AO2 SLP120 T00110000 FZRANO
PATG 171156Z AUTO 07011KT 10SM BKN070 OVC100 02/00 A2959 RMK AO2 SLP114 60002 70025 T00170000 10022 20011 51015 FZRANO
PATG 171056Z AUTO 06009KT 10SM OVC060 02/01 A2957 RMK AO2 SLP109 T00170006 FZRANO
PATG 170956Z AUTO 06009KT 10SM OVC034 02/01 A2956 RMK AO2 UPE06RAB06E19 SLP104 P0001 T00170006 FZRANO
PATG 170926Z AUTO 06011KT 10SM FEW023 SCT030 OVC037 02/01 A2955 RMK AO2 UPE06RAB06E19 P0001 FZRANO
PATG 170856Z AUTO 05010KT 10SM UP OVC023 02/01 A2954 RMK AO2 UPB0757 SLP099 P0001 60001 T00170006 400281017 51018 FZRANO
PATG 170756Z AUTO 02008KT 10SM BKN018 OVC026 02/00 A2953 RMK AO2 RAE17UPB17E48 SLP093 P0000 T00170000 FZRANO
PATG 170656Z AUTO 02009KT 10SM -RA FEW020 BKN026 OVC033 02/00 A2952 RMK AO2 RAB24 SLP090 P0000 T00220000 FZRANO
PATG 170556Z AUTO 01010KT 10SM BKN043 BKN070 OVC085 01/M01 A2949 RMK AO2 SLP081 60023 T00111006 10022 20006 53012 FZRANO
PATG 170456Z AUTO 34010KT 10SM OVC065 02/00 A2947 RMK AO2 SLP076 T00170000 FZRANO
PATG 170356Z AUTO 35011KT 10SM SCT038 OVC050 02/00 A2947 RMK AO2 SLP073 T00170000 FZRANO
PATG 170256Z AUTO 01013KT 10SM OVC034 02/01 A2946 RMK AO2 RAE23 SLP070 P0001 60023 T00170006 56004 FZRANO
PATG 170238Z AUTO 36013KT 10SM OVC032 01/01 A2946 RMK AO2 RAE23 P0001 FZRANO
PATG 170156Z AUTO 02009KT 10SM -RA BKN025 OVC031 01/01 A2946 RMK AO2 SLP070 P0020 T00110006 FZRANO
PATG 170149Z AUTO 02009KT 10SM -RA BKN027 OVC032 01/00 A2946 RMK AO2 P0019 FZRANO
PATG 170114Z AUTO 33007KT 8SM -RA FEW020 BKN030 OVC035 01/00 A2946 RMK AO2 P0018 FZRANO
PATG 170056Z AUTO 35009KT 10SM -RA BKN020 OVC030 01/00 A2946 RMK AO2 RAE2358B15SNB2358E15 SLP069 P0002 T00060000 FZRANO
PATG 162356Z AUTO 02010KT 8SM -RA SCT018 OVC028 02/M01 A2947 RMK AO2 RAB45 SLP073 P0000 60000 T00171006 10028 21006 55005 FZRANO
PATG 162342Z AUTO 02009KT 10SM OVC028 02/M01 A2947 RMK AO2 FZRANO
PATG 162256Z AUTO 36010KT 10SM BKN043 OVC050 02/M02 A2946 RMK AO2 SLP070 T00221017 FZRANO